Time;durP1;ratioP1;P1;durP2;ratioP2;P2;SDS_P1;SDS_P2;PMS_P1;PMS_P2;Temp;Humidity;BMP_temperature;BMP_pressure;BME280_temperature;BME280_humidity;BME280_pressure;Samples;Min_cycle;Max_cycle;Signal;HPM_P1;HPM_P2
2023/12/24 00:00:45;;;;;;;;;;;;;;;20.25;44.34;99824.25;2096397;28;5969;-68
2023/12/24 00:01:46;;;;;;;;;;;;;;;20.25;44.46;99827.84;2097272;28;2171;-68
2023/12/24 00:02:48;;;;;;;;;;;;;;;20.25;44.41;99824.25;2098104;28;2080;-67
2023/12/24 00:03:50;;;;;;;;;;;;;;;20.25;44.49;99824.25;2097495;28;1605;-68
2023/12/24 00:04:51;;;;;;;;;;;;;;;20.26;44.44;99814.19;2099832;28;2468;-68
2023/12/24 00:05:53;;;;;;;;;;;;;;;20.24;44.57;99814.13;2100665;28;2585;-68
2023/12/24 00:06:58;;;;;;;;;;;;;;;20.23;44.68;99810.53;2102806;28;1659;-68
2023/12/24 00:08:00;;;;;;;;;;;;;;;20.25;44.46;99812.75;2103762;28;1580;-68
2023/12/24 00:09:02;;;;;;;;;;;;;;;20.24;44.59;99814.13;2095471;28;2567;-68
2023/12/24 00:10:03;;;;;;;;;;;;;;;20.24;44.74;99812.00;2099790;28;1949;-68
2023/12/24 00:11:05;;;;;;;;;;;;;;;20.23;44.53;99815.56;2095170;28;2481;-68
2023/12/24 00:12:07;;;;;;;;;;;;;;;20.23;44.45;99809.81;2097558;28;1670;-68
2023/12/24 00:13:08;;;;;;;;;;;;;;;20.22;44.53;99802.56;2099061;28;2303;-68
2023/12/24 00:14:10;;;;;;;;;;;;;;;20.22;44.53;99802.56;2097870;28;2312;-68
2023/12/24 00:15:11;;;;;;;;;;;;;;;20.23;44.43;99809.81;2098393;28;2684;-67
2023/12/24 00:16:13;;;;;;;;;;;;;;;20.23;44.54;99804.06;2099892;28;2209;-68
2023/12/24 00:17:14;;;;;;;;;;;;;;;20.22;44.53;99805.44;2100081;28;2269;-68
2023/12/24 00:18:15;;;;;;;;;;;;;;;20.21;44.74;99804.00;2097833;28;2001;-67
2023/12/24 00:19:17;;;;;;;;;;;;;;;20.21;44.60;99801.84;2096957;28;2386;-68
2023/12/24 00:20:18;;;;;;;;;;;;;;;20.22;44.46;99796.81;2099798;28;1577;-68
2023/12/24 00:21:20;;;;;;;;;;;;;;;20.21;44.52;99804.00;2100620;28;2299;-68
2023/12/24 00:22:21;;;;;;;;;;;;;;;20.21;44.48;99806.88;2097153;28;2414;-68
2023/12/24 00:23:23;;;;;;;;;;;;;;;20.22;44.53;99805.44;2099373;28;2273;-68
2023/12/24 00:24:24;;;;;;;;;;;;;;;20.21;44.67;99806.88;2097406;28;2286;-68
2023/12/24 00:25:25;;;;;;;;;;;;;;;20.21;44.52;99801.84;2098027;28;2417;-68
2023/12/24 00:26:27;;;;;;;;;;;;;;;20.22;44.49;99803.31;2099767;28;2441;-68
2023/12/24 00:27:28;;;;;;;;;;;;;;;20.21;44.48;99795.38;2101094;28;2402;-68
2023/12/24 00:28:30;;;;;;;;;;;;;;;20.22;44.64;99799.69;2099356;28;2419;-68
2023/12/24 00:29:31;;;;;;;;;;;;;;;20.23;44.48;99804.06;2100024;28;1948;-70
2023/12/24 00:30:33;;;;;;;;;;;;;;;20.24;44.48;99805.50;2097715;28;5994;-68
2023/12/24 00:31:34;;;;;;;;;;;;;;;20.23;44.44;99801.91;2101681;28;2146;-68
2023/12/24 00:32:36;;;;;;;;;;;;;;;20.23;44.47;99798.31;2098540;28;2418;-68
2023/12/24 00:33:37;;;;;;;;;;;;;;;20.22;44.52;99797.56;2098073;28;2608;-68
2023/12/24 00:34:39;;;;;;;;;;;;;;;20.23;44.43;99801.91;2102223;28;1646;-68
2023/12/24 00:35:40;;;;;;;;;;;;;;;20.24;44.63;99794.03;2096272;28;2080;-68
2023/12/24 00:36:42;;;;;;;;;;;;;;;20.24;44.43;99788.28;2097260;28;2425;-68
2023/12/24 00:37:43;;;;;;;;;;;;;;;20.24;44.60;99794.03;2099884;28;2377;-68
2023/12/24 00:38:44;;;;;;;;;;;;;;;20.25;44.36;99789.75;2098068;28;2362;-68
2023/12/24 00:39:46;;;;;;;;;;;;;;;20.25;44.49;99789.75;2096222;28;2722;-68
2023/12/24 00:40:47;;;;;;;;;;;;;;;20.25;44.49;99795.50;2102304;28;1673;-69
2023/12/24 00:41:49;;;;;;;;;;;;;;;20.25;44.37;99781.84;2102388;28;1613;-69
2023/12/24 00:42:50;;;;;;;;;;;;;;;20.25;44.57;99784.00;2101978;28;1639;-69
2023/12/24 00:43:52;;;;;;;;;;;;;;;20.25;44.55;99784.00;2096436;28;2441;-69
2023/12/24 00:44:53;;;;;;;;;;;;;;;20.24;44.42;99785.41;2101703;28;1637;-69
2023/12/24 00:45:55;;;;;;;;;;;;;;;20.24;44.41;99796.91;2099227;28;2201;-69
2023/12/24 00:46:56;;;;;;;;;;;;;;;20.24;44.36;99782.53;2100234;28;1635;-68
2023/12/24 00:47:58;;;;;;;;;;;;;;;20.24;44.45;99788.28;2099043;28;1522;-69
2023/12/24 00:49:00;;;;;;;;;;;;;;;20.23;44.45;99778.91;2098524;28;2385;-68
2023/12/24 00:50:01;;;;;;;;;;;;;;;20.23;44.41;99781.06;2101226;28;2154;-69
2023/12/24 00:51:04;;;;;;;;;;;;;;;20.23;44.54;99786.81;2098022;28;2412;-68
2023/12/24 00:52:05;;;;;;;;;;;;;;;20.23;44.40;99787.53;2100696;28;2291;-68
2023/12/24 00:53:07;;;;;;;;;;;;;;;20.22;44.48;99779.59;2099201;28;2153;-68
2023/12/24 00:54:08;;;;;;;;;;;;;;;20.22;44.51;99768.09;2096585;28;2236;-68
2023/12/24 00:55:10;;;;;;;;;;;;;;;20.22;44.46;99776.72;2098655;28;1871;-69
2023/12/24 00:56:12;;;;;;;;;;;;;;;20.22;44.44;99779.59;2099445;28;2338;-69
2023/12/24 00:57:14;;;;;;;;;;;;;;;20.22;44.47;99788.22;2101324;28;1797;-69
2023/12/24 00:58:17;;;;;;;;;;;;;;;20.22;44.51;99779.59;2101708;28;1985;-69
2023/12/24 00:59:18;;;;;;;;;;;;;;;20.22;44.62;99785.34;2099903;28;2402;-69
2023/12/24 01:00:19;;;;;;;;;;;;;;;20.21;44.47;99772.38;2100570;28;6044;-68
2023/12/24 01:01:24;;;;;;;;;;;;;;;20.20;44.42;99777.41;2102903;28;2295;-68
2023/12/24 01:02:25;;;;;;;;;;;;;;;20.21;44.47;99786.75;2100968;28;2067;-68
2023/12/24 01:03:27;;;;;;;;;;;;;;;20.21;44.52;99783.88;2098366;28;2448;-68
2023/12/24 01:04:28;;;;;;;;;;;;;;;20.20;44.53;99782.38;2101133;28;2385;-68
2023/12/24 01:05:30;;;;;;;;;;;;;;;20.20;44.66;99783.16;2100150;28;2378;-68
2023/12/24 01:06:31;;;;;;;;;;;;;;;20.20;44.56;99780.28;2097657;28;2417;-68
2023/12/24 01:07:33;;;;;;;;;;;;;;;20.20;44.61;99776.66;2098423;28;1660;-68
2023/12/24 01:08:34;;;;;;;;;;;;;;;20.21;44.50;99778.13;2096900;28;2394;-68
2023/12/24 01:09:36;;;;;;;;;;;;;;;20.21;44.51;99783.88;2097182;28;2629;-68
2023/12/24 01:10:37;;;;;;;;;;;;;;;20.20;44.62;99782.38;2097460;28;2244;-69
2023/12/24 01:11:40;;;;;;;;;;;;;;;20.20;44.54;99771.66;2098913;28;1845;-68
2023/12/24 01:12:43;;;;;;;;;;;;;;;20.21;44.51;99766.63;2096926;28;1562;-69
2023/12/24 01:13:44;;;;;;;;;;;;;;;20.20;44.31;99765.91;2100357;28;1796;-68
2023/12/24 01:14:45;;;;;;;;;;;;;;;20.22;44.60;99773.84;2098866;28;2234;-68
2023/12/24 01:15:47;;;;;;;;;;;;;;;20.21;44.51;99772.38;2098358;28;2405;-68
2023/12/24 01:16:48;;;;;;;;;;;;;;;20.21;44.56;99778.13;2100155;28;2350;-69
2023/12/24 01:17:49;;;;;;;;;;;;;;;20.22;44.50;99773.84;2100113;28;2329;-69
2023/12/24 01:18:51;;;;;;;;;;;;;;;20.21;44.64;99772.38;2099395;28;2773;-68
2023/12/24 01:19:55;;;;;;;;;;;;;;;20.22;44.58;99780.31;2099384;28;2397;-68
2023/12/24 01:20:56;;;;;;;;;;;;;;;20.20;44.60;99777.41;2097071;28;2436;-69
2023/12/24 01:21:58;;;;;;;;;;;;;;;20.20;44.53;99771.66;2103296;28;1828;-68
2023/12/24 01:22:59;;;;;;;;;;;;;;;20.23;44.47;99772.44;2097023;28;2299;-69
2023/12/24 01:24:01;;;;;;;;;;;;;;;20.24;44.36;99768.16;2099449;28;1697;-69
2023/12/24 01:25:02;;;;;;;;;;;;;;;20.23;44.58;99770.28;2100403;28;1749;-68
2023/12/24 01:26:04;;;;;;;;;;;;;;;20.22;44.42;99768.09;2095217;28;2505;-69
2023/12/24 01:27:06;;;;;;;;;;;;;;;20.22;44.35;99763.06;2099249;28;1688;-68
2023/12/24 01:28:07;;;;;;;;;;;;;;;20.21;44.58;99766.63;2100824;28;2453;-68
2023/12/24 01:29:08;;;;;;;;;;;;;;;20.22;44.65;99768.09;2100001;28;2397;-68
2023/12/24 01:30:10;;;;;;;;;;;;;;;20.21;44.48;99761.59;2098121;28;6138;-68
2023/12/24 01:31:11;;;;;;;;;;;;;;;20.22;44.62;99762.34;2097844;28;1628;-69
2023/12/24 01:32:13;;;;;;;;;;;;;;;20.21;44.49;99766.63;2099880;28;2209;-68
2023/12/24 01:33:14;;;;;;;;;;;;;;;20.21;44.36;99763.75;2101377;28;2497;-68
2023/12/24 01:34:16;;;;;;;;;;;;;;;20.21;44.45;99767.34;2098025;28;2552;-68
2023/12/24 01:35:18;;;;;;;;;;;;;;;20.21;44.44;99766.63;2097026;28;2716;-68
2023/12/24 01:36:19;;;;;;;;;;;;;;;20.21;44.41;99769.50;2099159;28;2358;-69
2023/12/24 01:37:21;;;;;;;;;;;;;;;20.20;44.45;99762.28;2099940;28;2233;-68
2023/12/24 01:38:22;;;;;;;;;;;;;;;20.19;44.45;99764.41;2099836;28;2228;-69
2023/12/24 01:39:25;;;;;;;;;;;;;;;20.20;44.42;99756.53;2102781;28;1768;-69
2023/12/24 01:40:26;;;;;;;;;;;;;;;20.19;44.55;99752.19;2098528;28;2429;-69
2023/12/24 01:41:27;;;;;;;;;;;;;;;20.19;44.57;99752.19;2100474;28;1666;-69
2023/12/24 01:42:29;;;;;;;;;;;;;;;20.19;44.43;99757.94;2103424;28;1784;-69
2023/12/24 01:43:30;;;;;;;;;;;;;;;20.18;44.59;99751.47;2100214;28;2421;-68
2023/12/24 01:44:32;;;;;;;;;;;;;;;20.19;44.59;99755.06;2097381;28;2428;-68
2023/12/24 01:45:33;;;;;;;;;;;;;;;20.18;44.46;99750.72;2102422;28;2075;-69
2023/12/24 01:46:34;;;;;;;;;;;;;;;20.19;44.45;99752.19;2102198;28;2366;-68
2023/12/24 01:47:36;;;;;;;;;;;;;;;20.18;44.55;99739.22;2099162;28;1582;-69
2023/12/24 01:48:37;;;;;;;;;;;;;;;20.17;44.51;99752.84;2098088;28;2431;-68
2023/12/24 01:49:39;;;;;;;;;;;;;;;20.18;44.48;99750.72;2100914;28;2544;-68
2023/12/24 01:50:40;;;;;;;;;;;;;;;20.18;44.47;99754.34;2099967;28;2202;-69
2023/12/24 01:51:42;;;;;;;;;;;;;;;20.18;44.56;99751.47;2096828;28;2281;-68
2023/12/24 01:52:43;;;;;;;;;;;;;;;20.19;44.64;99755.06;2099681;28;2210;-68
2023/12/24 01:53:45;;;;;;;;;;;;;;;20.19;44.50;99752.91;2097580;28;2177;-68
2023/12/24 01:54:47;;;;;;;;;;;;;;;20.20;44.56;99762.28;2097396;28;2174;-68
2023/12/24 01:55:48;;;;;;;;;;;;;;;20.20;44.43;99763.03;2099023;28;1798;-69
2023/12/24 01:56:50;;;;;;;;;;;;;;;20.20;44.53;99753.66;2099383;28;2450;-68
2023/12/24 01:57:51;;;;;;;;;;;;;;;20.20;44.59;99748.66;2099106;28;1780;-68
2023/12/24 01:58:52;;;;;;;;;;;;;;;20.20;44.41;99733.53;2098734;28;2398;-68
2023/12/24 01:59:54;;;;;;;;;;;;;;;20.20;44.50;99747.91;2097647;28;2173;-69
2023/12/24 02:00:55;;;;;;;;;;;;;;;20.20;44.51;99745.03;2101144;28;6131;-68
2023/12/24 02:01:57;;;;;;;;;;;;;;;20.21;44.41;99743.63;2093110;28;1753;-68
2023/12/24 02:02:59;;;;;;;;;;;;;;;20.20;44.43;99736.41;2097580;28;2299;-68
2023/12/24 02:04:00;;;;;;;;;;;;;;;20.20;44.48;99742.16;2102722;28;1578;-69
2023/12/24 02:05:02;;;;;;;;;;;;;;;20.21;44.47;99744.38;2099402;28;2453;-68
2023/12/24 02:06:03;;;;;;;;;;;;;;;20.19;44.45;99737.81;2097626;28;1847;-68
2023/12/24 02:07:05;;;;;;;;;;;;;;;20.21;44.62;99737.88;2099074;28;2098;-68
2023/12/24 02:08:06;;;;;;;;;;;;;;;20.21;44.44;99730.00;2103658;28;1547;-68
2023/12/24 02:09:08;;;;;;;;;;;;;;;20.21;44.49;99732.13;2095805;28;2676;-68
2023/12/24 02:10:09;;;;;;;;;;;;;;;20.20;44.36;99727.78;2101701;28;1855;-69
2023/12/24 02:11:11;;;;;;;;;;;;;;;20.21;44.43;99723.50;2103146;28;2382;-67
2023/12/24 02:12:12;;;;;;;;;;;;;;;20.21;44.55;99727.13;2101212;28;2421;-68
2023/12/24 02:13:14;;;;;;;;;;;;;;;20.20;44.38;99731.41;2101331;28;2443;-68
2023/12/24 02:14:16;;;;;;;;;;;;;;;20.20;44.39;99724.91;2101877;28;1739;-68
2023/12/24 02:15:17;;;;;;;;;;;;;;;20.20;44.53;99722.03;2101364;28;2318;-67
2023/12/24 02:16:19;;;;;;;;;;;;;;;20.20;44.47;99722.03;2099969;28;1578;-68
2023/12/24 02:17:22;;;;;;;;;;;;;;;20.20;44.42;99719.16;2099297;28;2307;-68
2023/12/24 02:18:26;;;;;;;;;;;;;;;20.20;44.58;99724.91;2101326;28;2770;-72
2023/12/24 02:19:27;;;;;;;;;;;;;;;20.19;44.44;99721.31;2097637;28;2433;-63
2023/12/24 02:20:29;;;;;;;;;;;;;;;20.19;44.61;99726.31;2103024;28;2018;-62
2023/12/24 02:21:31;;;;;;;;;;;;;;;20.18;44.54;99733.47;2101000;28;2445;-66
2023/12/24 02:22:32;;;;;;;;;;;;;;;20.18;44.47;99722.72;2100369;28;2362;-66
2023/12/24 02:23:34;;;;;;;;;;;;;;;20.17;44.57;99718.38;2102215;28;1574;-65
2023/12/24 02:24:35;;;;;;;;;;;;;;;20.18;44.62;99716.22;2102565;28;2350;-65
2023/12/24 02:25:37;;;;;;;;;;;;;;;20.18;44.46;99716.22;2101039;28;1776;-65
2023/12/24 02:26:39;;;;;;;;;;;;;;;20.17;44.50;99714.78;2098168;28;1815;-65
2023/12/24 02:27:52;;;;;;;;;;;;;;;20.17;44.41;99706.16;2098005;28;2277;-65
2023/12/24 02:29:01;;;;;;;;;;;;;;;20.17;44.53;99709.03;2092929;28;2453;-65
2023/12/24 02:30:05;;;;;;;;;;;;;;;20.17;44.54;99706.88;2093166;28;2592;-65
2023/12/24 02:31:06;;;;;;;;;;;;;;;20.17;44.48;99714.78;2092165;28;6714;-65
2023/12/24 02:32:10;;;;;;;;;;;;;;;20.16;44.52;99707.53;2102333;28;2276;-65
2023/12/24 02:33:14;;;;;;;;;;;;;;;20.17;44.65;99717.63;2101477;28;1986;-66
2023/12/24 02:34:16;;;;;;;;;;;;;;;20.18;44.42;99721.97;2101714;28;2254;-65
2023/12/24 02:35:18;;;;;;;;;;;;;;;20.17;44.47;99720.50;2099206;28;1632;-65
2023/12/24 02:36:19;;;;;;;;;;;;;;;20.17;44.59;99732.75;2100117;28;1847;-65
2023/12/24 02:37:21;;;;;;;;;;;;;;;20.18;44.44;99733.47;2101963;28;2434;-65
2023/12/24 02:38:22;;;;;;;;;;;;;;;20.18;44.42;99721.97;2100303;28;2174;-65
2023/12/24 02:39:25;;;;;;;;;;;;;;;20.18;44.50;99721.97;2100857;28;2257;-65
2023/12/24 02:40:27;;;;;;;;;;;;;;;20.18;44.50;99707.59;2101056;28;2174;-66
2023/12/24 02:41:28;;;;;;;;;;;;;;;20.19;44.44;99700.47;2098012;28;2174;-66
2023/12/24 02:42:30;;;;;;;;;;;;;;;20.18;44.50;99705.47;2103088;28;2261;-66
2023/12/24 02:43:31;;;;;;;;;;;;;;;20.18;44.47;99699.72;2101034;28;1904;-66
2023/12/24 02:44:33;;;;;;;;;;;;;;;20.19;44.45;99697.59;2102765;28;2314;-66
2023/12/24 02:45:35;;;;;;;;;;;;;;;20.19;44.54;99706.22;2100708;28;1598;-66
2023/12/24 02:46:37;;;;;;;;;;;;;;;20.19;44.55;99703.34;2102107;28;2221;-66
2023/12/24 02:47:53;;;;;;;;;;;;;;;20.20;44.36;99696.16;2089278;28;2665;-66
2023/12/24 02:48:55;;;;;;;;;;;;;;;20.20;44.36;99699.03;2080828;28;2130;-66
2023/12/24 02:49:57;;;;;;;;;;;;;;;20.19;44.49;99694.72;2084160;28;2255;-66
2023/12/24 02:50:58;;;;;;;;;;;;;;;20.19;44.38;99691.84;2083028;28;2437;-66
2023/12/24 02:51:59;;;;;;;;;;;;;;;20.20;44.41;99687.53;2083820;28;1652;-66
2023/12/24 02:53:01;;;;;;;;;;;;;;;20.19;44.43;99694.72;2083754;28;2387;-66
2023/12/24 02:54:02;;;;;;;;;;;;;;;20.19;44.60;99680.34;2082582;28;2240;-66
2023/12/24 02:55:04;;;;;;;;;;;;;;;20.19;44.44;99689.69;2084945;28;2395;-66
2023/12/24 02:56:05;;;;;;;;;;;;;;;20.18;44.42;99676.75;2082582;28;2020;-66
2023/12/24 02:57:07;;;;;;;;;;;;;;;20.18;44.48;99675.97;2083890;28;1866;-66
2023/12/24 02:58:08;;;;;;;;;;;;;;;20.17;44.48;99674.53;2083054;28;2350;-66
2023/12/24 02:59:09;;;;;;;;;;;;;;;20.17;44.42;99671.66;2079604;28;1926;-66
2023/12/24 03:00:11;;;;;;;;;;;;;;;20.17;44.44;99669.50;2080961;28;6195;-66
2023/12/24 03:01:16;;;;;;;;;;;;;;;20.17;44.50;99668.78;2060196;28;2031;-66
2023/12/24 03:02:17;;;;;;;;;;;;;;;20.18;44.59;99664.50;2060024;28;2211;-66
2023/12/24 03:03:19;;;;;;;;;;;;;;;20.17;44.50;99657.28;2058222;28;1640;-66
2023/12/24 03:04:20;;;;;;;;;;;;;;;20.17;44.59;99654.41;2059021;28;2728;-66
2023/12/24 03:05:22;;;;;;;;;;;;;;;20.15;44.45;99651.47;2056471;28;2441;-66
2023/12/24 03:06:23;;;;;;;;;;;;;;;20.16;44.49;99652.94;2061152;28;2755;-66
2023/12/24 03:07:25;;;;;;;;;;;;;;;20.15;44.50;99651.47;2056959;28;2516;-66
2023/12/24 03:08:26;;;;;;;;;;;;;;;20.14;44.48;99647.88;2061435;28;2441;-66
2023/12/24 03:09:28;;;;;;;;;;;;;;;20.15;44.62;99654.34;2060066;28;2390;-65
2023/12/24 03:10:29;;;;;;;;;;;;;;;20.15;44.60;99654.34;2058061;28;1688;-66
2023/12/24 03:11:30;;;;;;;;;;;;;;;20.14;44.63;99647.88;2060048;28;1628;-66
2023/12/24 03:12:32;;;;;;;;;;;;;;;20.14;44.53;99647.16;2061754;28;1890;-66
2023/12/24 03:13:33;;;;;;;;;;;;;;;20.11;44.53;99639.88;2056984;28;2363;-66
2023/12/24 03:14:35;;;;;;;;;;;;;;;20.13;44.57;99645.66;2058480;28;2686;-66
2023/12/24 03:15:36;;;;;;;;;;;;;;;20.12;44.57;99649.97;2059223;28;2395;-66
2023/12/24 03:16:38;;;;;;;;;;;;;;;20.12;44.71;99644.22;2061243;28;2541;-66
2023/12/24 03:17:39;;;;;;;;;;;;;;;20.12;44.67;99652.84;2057837;28;1879;-66
2023/12/24 03:18:41;;;;;;;;;;;;;;;20.11;44.48;99642.75;2059046;28;2463;-66
2023/12/24 03:19:42;;;;;;;;;;;;;;;20.11;44.65;99642.75;2058885;28;2291;-66
2023/12/24 03:20:44;;;;;;;;;;;;;;;20.11;44.62;99637.00;2060198;28;2189;-66
2023/12/24 03:21:45;;;;;;;;;;;;;;;20.10;44.58;99630.53;2056416;28;2403;-66
2023/12/24 03:22:47;;;;;;;;;;;;;;;20.11;44.54;99626.22;2063741;28;1619;-66
2023/12/24 03:23:48;;;;;;;;;;;;;;;20.08;44.61;99625.44;2059991;28;2348;-66
2023/12/24 03:24:50;;;;;;;;;;;;;;;20.08;44.72;99628.31;2060480;28;1557;-66
2023/12/24 03:25:52;;;;;;;;;;;;;;;20.08;44.63;99622.56;2058294;28;2347;-66
2023/12/24 03:26:54;;;;;;;;;;;;;;;20.07;44.58;99615.38;2061198;28;1642;-66
2023/12/24 03:27:55;;;;;;;;;;;;;;;20.07;44.68;99621.13;2059262;28;1987;-66
2023/12/24 03:28:57;;;;;;;;;;;;;;;20.06;44.69;99616.75;2058201;28;1647;-66
2023/12/24 03:29:58;;;;;;;;;;;;;;;20.08;44.76;99622.56;2057184;28;2387;-66
2023/12/24 03:30:59;;;;;;;;;;;;;;;20.07;44.74;99615.38;2067326;28;6150;-66
2023/12/24 03:32:01;;;;;;;;;;;;;;;20.07;44.76;99603.88;2068484;28;2413;-66
2023/12/24 03:33:02;;;;;;;;;;;;;;;20.07;44.62;99608.88;2068750;28;2381;-66
2023/12/24 03:34:04;;;;;;;;;;;;;;;20.08;44.73;99611.06;2067310;28;1685;-66
2023/12/24 03:35:06;;;;;;;;;;;;;;;20.08;44.59;99604.59;2069938;28;1685;-66
2023/12/24 03:36:07;;;;;;;;;;;;;;;20.09;44.60;99612.56;2068143;28;2358;-66
2023/12/24 03:37:09;;;;;;;;;;;;;;;20.09;44.66;99606.81;2060517;28;2261;-66
2023/12/24 03:38:10;;;;;;;;;;;;;;;20.09;44.63;99606.81;2061260;28;2390;-66
2023/12/24 03:39:12;;;;;;;;;;;;;;;20.09;44.65;99612.56;2058639;28;2209;-66
2023/12/24 03:40:13;;;;;;;;;;;;;;;20.11;44.55;99614.00;2060477;28;2249;-66
2023/12/24 03:41:15;;;;;;;;;;;;;;;20.12;44.54;99606.88;2058911;28;2253;-66
2023/12/24 03:42:16;;;;;;;;;;;;;;;20.12;44.64;99615.47;2058250;28;2503;-66
2023/12/24 03:43:17;;;;;;;;;;;;;;;20.13;44.59;99602.56;2060449;28;1611;-66
2023/12/24 03:44:19;;;;;;;;;;;;;;;20.13;44.57;99602.56;2059146;28;2379;-66
2023/12/24 03:45:20;;;;;;;;;;;;;;;20.14;44.59;99612.66;2063162;28;1645;-65
2023/12/24 03:46:22;;;;;;;;;;;;;;;20.13;44.44;99603.28;2057651;28;1809;-66
2023/12/24 03:47:23;;;;;;;;;;;;;;;20.13;44.51;99605.44;2060837;28;2465;-66
2023/12/24 03:48:25;;;;;;;;;;;;;;;20.14;44.44;99607.66;2063051;28;2126;-66
2023/12/24 03:49:26;;;;;;;;;;;;;;;20.16;44.43;99604.06;2067307;28;2560;-66
2023/12/24 03:50:27;;;;;;;;;;;;;;;20.16;44.43;99601.19;2066576;28;2404;-66
2023/12/24 03:51:29;;;;;;;;;;;;;;;20.16;44.48;99601.19;2066241;28;2468;-66
2023/12/24 03:52:31;;;;;;;;;;;;;;;20.17;44.38;99599.81;2068277;28;2545;-66
2023/12/24 03:53:32;;;;;;;;;;;;;;;20.17;44.45;99602.69;2066294;28;2430;-66
2023/12/24 03:54:33;;;;;;;;;;;;;;;20.17;44.27;99596.94;2066786;28;1571;-66
2023/12/24 03:55:35;;;;;;;;;;;;;;;20.19;44.38;99597.00;2067544;28;1525;-66
2023/12/24 03:56:36;;;;;;;;;;;;;;;20.19;44.38;99608.50;2066252;28;2381;-66
2023/12/24 03:57:38;;;;;;;;;;;;;;;20.19;44.39;99597.00;2068287;28;2397;-66
2023/12/24 03:58:39;;;;;;;;;;;;;;;20.19;44.48;99597.00;2067823;28;2385;-66
2023/12/24 03:59:41;;;;;;;;;;;;;;;20.20;44.33;99604.19;2061243;28;2535;-66
2023/12/24 04:00:42;;;;;;;;;;;;;;;20.20;44.35;99604.94;2058858;28;6261;-66
2023/12/24 04:01:44;;;;;;;;;;;;;;;20.20;44.26;99599.19;2061973;28;1669;-66
2023/12/24 04:02:45;;;;;;;;;;;;;;;20.20;44.32;99581.19;2056923;28;2778;-66
2023/12/24 04:03:47;;;;;;;;;;;;;;;20.20;44.36;99586.94;2059006;28;2453;-65
2023/12/24 04:04:48;;;;;;;;;;;;;;;20.20;44.39;99581.94;2061374;28;2197;-66
2023/12/24 04:05:49;;;;;;;;;;;;;;;20.21;44.45;99576.94;2060758;28;2356;-66
2023/12/24 04:06:51;;;;;;;;;;;;;;;20.22;44.45;99584.13;2062549;28;2448;-66
2023/12/24 04:07:53;;;;;;;;;;;;;;;20.23;44.41;99585.59;2064123;28;2374;-66
2023/12/24 04:08:54;;;;;;;;;;;;;;;20.22;44.34;99576.22;2062118;28;2263;-66
2023/12/24 04:09:56;;;;;;;;;;;;;;;20.24;44.38;99587.06;2061433;28;2410;-66
2023/12/24 04:10:57;;;;;;;;;;;;;;;20.23;44.25;99579.84;2062796;28;2330;-66
2023/12/24 04:11:59;;;;;;;;;;;;;;;20.23;44.25;99579.84;2057447;28;2292;-66
2023/12/24 04:13:03;;;;;;;;;;;;;;;20.23;44.25;99579.84;2062664;28;1865;-66
2023/12/24 04:14:05;;;;;;;;;;;;;;;20.24;44.29;99578.44;2062617;28;2170;-66
2023/12/24 04:15:07;;;;;;;;;;;;;;;20.25;44.20;99571.28;2063938;28;2505;-66
2023/12/24 04:16:09;;;;;;;;;;;;;;;20.24;44.41;99570.53;2060407;28;1713;-66
2023/12/24 04:17:10;;;;;;;;;;;;;;;20.24;44.35;99578.44;2058268;28;2509;-66
2023/12/24 04:18:11;;;;;;;;;;;;;;;20.24;44.22;99569.81;2059949;28;2413;-66
2023/12/24 04:19:13;;;;;;;;;;;;;;;20.23;44.30;99574.13;2058446;28;2551;-66
2023/12/24 04:20:14;;;;;;;;;;;;;;;20.23;44.24;99574.84;2061951;28;2564;-66
2023/12/24 04:21:16;;;;;;;;;;;;;;;20.23;44.41;99569.09;2060517;28;1674;-66
2023/12/24 04:22:17;;;;;;;;;;;;;;;20.23;44.45;99559.75;2061897;28;2429;-66
2023/12/24 04:23:19;;;;;;;;;;;;;;;20.23;44.37;99563.34;2063374;28;1619;-66
2023/12/24 04:24:20;;;;;;;;;;;;;;;20.23;44.25;99562.63;2063038;28;2245;-66
2023/12/24 04:25:21;;;;;;;;;;;;;;;20.23;44.34;99554.00;2057560;28;2015;-66
2023/12/24 04:26:23;;;;;;;;;;;;;;;20.21;44.41;99556.81;2062793;28;2487;-66
2023/12/24 04:27:25;;;;;;;;;;;;;;;20.22;44.34;99564.00;2060388;28;2343;-66
2023/12/24 04:28:26;;;;;;;;;;;;;;;20.22;44.40;99561.13;2057699;28;2335;-66
2023/12/24 04:29:27;;;;;;;;;;;;;;;20.18;44.48;99561.78;2061965;28;1635;-66
2023/12/24 04:30:29;;;;;;;;;;;;;;;20.19;44.43;99551.00;2060406;28;6023;-66
2023/12/24 04:31:30;;;;;;;;;;;;;;;20.21;44.32;99559.69;2060602;28;2390;-66
2023/12/24 04:32:32;;;;;;;;;;;;;;;20.21;44.43;99556.81;2061068;28;2234;-66
2023/12/24 04:33:34;;;;;;;;;;;;;;;20.23;44.42;99545.38;2061380;28;2341;-66
2023/12/24 04:34:37;;;;;;;;;;;;;;;20.21;44.44;99539.56;2064052;28;1520;-66
2023/12/24 04:35:39;;;;;;;;;;;;;;;20.21;44.42;99539.56;2062357;28;1689;-66
2023/12/24 04:36:40;;;;;;;;;;;;;;;20.23;44.37;99545.38;2061483;28;1699;-66
2023/12/24 04:37:42;;;;;;;;;;;;;;;20.23;44.22;99545.38;2060354;28;2348;-66
2023/12/24 04:38:43;;;;;;;;;;;;;;;20.24;44.55;99546.81;2059478;28;2344;-66
2023/12/24 04:39:45;;;;;;;;;;;;;;;20.24;44.26;99556.16;2061529;28;2236;-66
2023/12/24 04:40:46;;;;;;;;;;;;;;;20.23;44.52;99546.09;2058809;28;2377;-66
2023/12/24 04:41:48;;;;;;;;;;;;;;;20.23;44.42;99536.75;2062692;28;1650;-66
2023/12/24 04:42:49;;;;;;;;;;;;;;;20.22;44.41;99535.28;2060415;28;1687;-66
2023/12/24 04:43:51;;;;;;;;;;;;;;;20.23;44.17;99545.38;2061299;28;2410;-66
2023/12/24 04:44:52;;;;;;;;;;;;;;;20.24;44.28;99546.81;2062020;28;1620;-66
2023/12/24 04:45:53;;;;;;;;;;;;;;;20.25;44.47;99537.53;2058174;28;2138;-66
2023/12/24 04:46:55;;;;;;;;;;;;;;;20.26;44.41;99529.63;2061740;28;1869;-65
2023/12/24 04:47:58;;;;;;;;;;;;;;;20.24;44.25;99533.19;2061329;28;2528;-66
2023/12/24 04:49:00;;;;;;;;;;;;;;;20.27;44.34;99539.72;2061317;28;2318;-66
2023/12/24 04:50:02;;;;;;;;;;;;;;;20.27;44.24;99539.72;2063937;28;2390;-66
2023/12/24 04:51:03;;;;;;;;;;;;;;;20.29;44.28;99525.38;2058347;28;2226;-66
2023/12/24 04:52:05;;;;;;;;;;;;;;;20.27;44.31;99528.97;2060088;28;2121;-66
2023/12/24 04:53:06;;;;;;;;;;;;;;;20.29;44.33;99536.88;2059929;28;2233;-66
2023/12/24 04:54:07;;;;;;;;;;;;;;;20.27;44.26;99536.84;2062746;28;1916;-66
2023/12/24 04:55:09;;;;;;;;;;;;;;;20.29;44.23;99542.63;2063209;28;2397;-66
2023/12/24 04:56:20;;;;;;;;;;;;;;;20.29;44.34;99537.63;2057319;28;2234;-66
2023/12/24 04:57:21;;;;;;;;;;;;;;;20.29;44.21;99539.75;2061773;28;1893;-66
2023/12/24 04:58:23;;;;;;;;;;;;;;;20.27;44.28;99537.59;2058166;28;2693;-66
2023/12/24 04:59:24;;;;;;;;;;;;;;;20.28;44.28;99539.03;2063928;28;2274;-66
2023/12/24 05:00:26;;;;;;;;;;;;;;;20.29;44.28;99539.75;2059817;28;7157;-66
2023/12/24 05:01:27;;;;;;;;;;;;;;;20.28;44.31;99535.44;2062158;28;2377;-66
2023/12/24 05:02:29;;;;;;;;;;;;;;;20.28;44.50;99535.44;2056931;28;2215;-66
2023/12/24 05:03:30;;;;;;;;;;;;;;;20.28;44.22;99523.94;2060935;28;2271;-66
2023/12/24 05:04:34;;;;;;;;;;;;;;;20.27;44.26;99528.97;2060161;28;2344;-66
2023/12/24 05:05:36;;;;;;;;;;;;;;;20.29;44.24;99531.13;2059304;28;2409;-65
2023/12/24 05:06:37;;;;;;;;;;;;;;;20.28;44.26;99526.81;2061929;28;2424;-66
2023/12/24 05:07:39;;;;;;;;;;;;;;;20.28;44.21;99523.94;2062448;28;1671;-66
2023/12/24 05:08:41;;;;;;;;;;;;;;;20.27;44.44;99528.22;2062372;28;2356;-66
2023/12/24 05:09:42;;;;;;;;;;;;;;;20.28;44.27;99526.81;2062586;28;1749;-66
2023/12/24 05:10:46;;;;;;;;;;;;;;;20.26;44.40;99526.75;2061478;28;2235;-66
2023/12/24 05:11:48;;;;;;;;;;;;;;;20.26;44.43;99521.72;2062490;28;1564;-67
2023/12/24 05:12:49;;;;;;;;;;;;;;;20.26;44.36;99526.75;2059440;28;1905;-66
2023/12/24 05:13:51;;;;;;;;;;;;;;;20.27;44.42;99522.47;2062789;28;2082;-66
2023/12/24 05:14:53;;;;;;;;;;;;;;;20.27;44.49;99520.34;2058937;28;2365;-66
2023/12/24 05:15:54;;;;;;;;;;;;;;;20.28;44.34;99526.81;2064030;28;2412;-66
2023/12/24 05:16:56;;;;;;;;;;;;;;;20.26;44.31;99515.97;2058411;28;1837;-66
2023/12/24 05:17:57;;;;;;;;;;;;;;;20.25;44.43;99522.44;2061597;28;2264;-66
2023/12/24 05:18:59;;;;;;;;;;;;;;;20.27;44.44;99519.59;2062682;28;2544;-66
2023/12/24 05:20:01;;;;;;;;;;;;;;;20.28;44.34;99521.06;2058002;28;2340;-65
2023/12/24 05:21:02;;;;;;;;;;;;;;;20.29;44.37;99525.38;2062389;28;2429;-66
2023/12/24 05:22:04;;;;;;;;;;;;;;;20.29;44.32;99528.25;2064527;28;2175;-66
2023/12/24 05:23:05;;;;;;;;;;;;;;;20.29;44.23;99525.38;2061053;28;2435;-66
2023/12/24 05:24:06;;;;;;;;;;;;;;;20.30;44.41;99526.88;2060267;28;2491;-66
2023/12/24 05:25:08;;;;;;;;;;;;;;;20.29;44.38;99531.13;2060255;28;1814;-66
2023/12/24 05:26:09;;;;;;;;;;;;;;;20.31;44.30;99522.56;2059715;28;2782;-66